Time;durP1;ratioP1;P1;durP2;ratioP2;P2;SDS_P1;SDS_P2;PMS_P1;PMS_P2;Temp;Humidity;BMP_temperature;BMP_pressure;BME280_temperature;BME280_humidity;BME280_pressure;Samples;Min_cycle;Max_cycle;Signal;HPM_P1;HPM_P2
2023/06/08 00:00:16;;;;;;;9.23;8.30;;;;;;;;;;4991875;28;20413;-44
2023/06/08 00:02:42;;;;;;;19.90;10.50;;;;;;;;;;4991927;28;20447;-44
2023/06/08 00:05:12;;;;;;;12.10;8.80;;;;;;;;;;4995015;28;20483;-44
2023/06/08 00:07:40;;;;;;;13.90;10.70;;;;;;;;;;4990955;28;21096;-46
2023/06/08 00:10:07;;;;;;;18.33;10.03;;;;;;;;;;4991079;28;20440;-45
2023/06/08 00:12:33;;;;;;;10.80;9.20;;;;;;;;;;4991928;28;20808;-45
2023/06/08 00:14:59;;;;;;;11.63;9.40;;;;;;;;;;4990914;28;20460;-45
2023/06/08 00:17:25;;;;;;;16.80;9.43;;;;;;;;;;4994240;28;20467;-46
2023/06/08 00:19:52;;;;;;;14.13;9.70;;;;;;;;;;4995234;28;20411;-45
2023/06/08 00:22:21;;;;;;;16.50;10.07;;;;;;;;;;4995367;28;20382;-46
2023/06/08 00:24:47;;;;;;;15.43;9.03;;;;;;;;;;4995398;28;20386;-45
2023/06/08 00:27:12;;;;;;;17.90;11.70;;;;;;;;;;4995206;28;20443;-45
2023/06/08 00:29:38;;;;;;;14.83;9.47;;;;;;;;;;4995212;28;20507;-44
2023/06/08 00:32:05;;;;;;;13.17;8.03;;;;;;;;;;4995092;28;20408;-45
2023/06/08 00:34:31;;;;;;;16.57;9.63;;;;;;;;;;4995305;28;20478;-44
2023/06/08 00:36:57;;;;;;;14.37;9.77;;;;;;;;;;4994807;28;20432;-45
2023/06/08 00:39:23;;;;;;;11.73;9.50;;;;;;;;;;4993649;28;20907;-44
2023/06/08 00:41:49;;;;;;;19.30;9.60;;;;;;;;;;4995042;28;20391;-45
2023/06/08 00:44:15;;;;;;;20.83;10.00;;;;;;;;;;4995146;28;20910;-45
2023/06/08 00:46:41;;;;;;;12.40;9.00;;;;;;;;;;4994679;28;20406;-44
2023/06/08 00:49:08;;;;;;;15.90;8.60;;;;;;;;;;4994666;28;20398;-44
2023/06/08 00:51:36;;;;;;;12.57;8.77;;;;;;;;;;4999503;28;20448;-45
2023/06/08 00:54:03;;;;;;;14.40;9.10;;;;;;;;;;4994762;28;20775;-45
2023/06/08 00:56:31;;;;;;;12.70;8.93;;;;;;;;;;4994725;28;20422;-45
2023/06/08 00:59:00;;;;;;;11.90;9.17;;;;;;;;;;4994698;28;20517;-46
2023/06/08 01:01:29;;;;;;;10.73;9.00;;;;;;;;;;4994041;28;20769;-45
2023/06/08 01:03:55;;;;;;;14.63;10.03;;;;;;;;;;4994194;28;20411;-45
2023/06/08 01:06:21;;;;;;;15.70;9.13;;;;;;;;;;4994383;28;20804;-45
2023/06/08 01:08:47;;;;;;;12.03;10.17;;;;;;;;;;4993421;28;20443;-45
2023/06/08 01:11:32;;;;;;;13.00;9.10;;;;;;;;;;4994516;28;20413;-45
2023/06/08 01:14:17;;;;;;;11.67;9.10;;;;;;;;;;4994288;28;20412;-45
2023/06/08 01:16:49;;;;;;;17.13;9.27;;;;;;;;;;4994334;28;20417;-45
2023/06/08 01:19:23;;;;;;;16.27;9.43;;;;;;;;;;4994160;28;20398;-45
2023/06/08 01:21:58;;;;;;;15.97;9.30;;;;;;;;;;4994453;28;20854;-44
2023/06/08 01:24:25;;;;;;;13.93;8.83;;;;;;;;;;4994290;28;20411;-45
2023/06/08 01:26:51;;;;;;;16.63;9.47;;;;;;;;;;4993841;28;20394;-45
2023/06/08 01:29:18;;;;;;;13.83;8.67;;;;;;;;;;4994061;28;20400;-45
2023/06/08 01:31:44;;;;;;;19.10;10.50;;;;;;;;;;4994176;28;20506;-45
2023/06/08 01:34:12;;;;;;;19.10;10.20;;;;;;;;;;4994144;28;20905;-45
2023/06/08 01:36:38;;;;;;;13.10;9.20;;;;;;;;;;4994044;28;20395;-45
2023/06/08 01:39:13;;;;;;;14.03;8.87;;;;;;;;;;4992818;28;20546;-45
2023/06/08 01:41:47;;;;;;;11.93;9.03;;;;;;;;;;4993519;28;20419;-46
2023/06/08 01:44:15;;;;;;;11.07;9.50;;;;;;;;;;4993931;28;20395;-45
2023/06/08 01:46:43;;;;;;;16.80;9.30;;;;;;;;;;4993834;28;20481;-45
2023/06/08 01:49:10;;;;;;;15.07;9.07;;;;;;;;;;4993523;28;20910;-46
2023/06/08 01:51:37;;;;;;;14.63;9.50;;;;;;;;;;4998556;28;20402;-46
2023/06/08 01:54:04;;;;;;;14.40;9.57;;;;;;;;;;4993737;28;20893;-45
2023/06/08 01:56:34;;;;;;;10.83;8.90;;;;;;;;;;4993385;28;20447;-45
2023/06/08 01:59:00;;;;;;;13.17;8.40;;;;;;;;;;4992072;28;20471;-47
2023/06/08 02:01:26;;;;;;;14.70;9.30;;;;;;;;;;4993376;28;20565;-45
2023/06/08 02:03:52;;;;;;;13.00;9.80;;;;;;;;;;4996036;28;20381;-45
2023/06/08 02:06:18;;;;;;;11.60;8.50;;;;;;;;;;4993635;28;20415;-46
2023/06/08 02:08:44;;;;;;;14.03;8.53;;;;;;;;;;4993741;28;20901;-45
2023/06/08 02:11:10;;;;;;;15.80;9.33;;;;;;;;;;4993130;28;20740;-45
2023/06/08 02:13:44;;;;;;;12.87;8.33;;;;;;;;;;4993556;28;20415;-45
2023/06/08 02:16:10;;;;;;;9.77;8.77;;;;;;;;;;4985896;28;20441;-46
2023/06/08 02:18:39;;;;;;;16.10;10.27;;;;;;;;;;4993244;28;20472;-45
2023/06/08 02:21:05;;;;;;;12.83;9.17;;;;;;;;;;4985073;28;20804;-45
2023/06/08 02:23:31;;;;;;;14.03;9.43;;;;;;;;;;4992522;28;20405;-46
2023/06/08 02:25:57;;;;;;;9.60;8.57;;;;;;;;;;4992707;28;20894;-46
2023/06/08 02:28:23;;;;;;;12.07;8.40;;;;;;;;;;4993089;28;20400;-46
2023/06/08 02:30:49;;;;;;;12.37;9.13;;;;;;;;;;4992850;28;20406;-46
2023/06/08 02:33:15;;;;;;;13.27;8.47;;;;;;;;;;4993154;28;20406;-45
2023/06/08 02:35:41;;;;;;;15.20;10.33;;;;;;;;;;4992896;28;20892;-46
2023/06/08 02:38:07;;;;;;;13.27;9.70;;;;;;;;;;4992809;28;21188;-45
2023/06/08 02:40:33;;;;;;;14.47;8.90;;;;;;;;;;4992229;28;20389;-45
2023/06/08 02:43:00;;;;;;;15.20;8.83;;;;;;;;;;4992764;28;20387;-44
2023/06/08 02:45:26;;;;;;;19.17;10.00;;;;;;;;;;4992818;28;20393;-45
2023/06/08 02:47:52;;;;;;;14.40;9.80;;;;;;;;;;4992636;28;20420;-45
2023/06/08 02:50:18;;;;;;;14.80;9.10;;;;;;;;;;4993350;28;20412;-45
2023/06/08 02:52:44;;;;;;;14.70;9.03;;;;;;;;;;4994579;28;20418;-45
2023/06/08 02:55:10;;;;;;;13.80;9.23;;;;;;;;;;4992756;28;20952;-45
2023/06/08 02:57:40;;;;;;;15.77;9.57;;;;;;;;;;4992274;28;20513;-45
2023/06/08 03:00:12;;;;;;;11.40;9.30;;;;;;;;;;4984629;28;20420;-45
2023/06/08 03:02:38;;;;;;;13.80;9.43;;;;;;;;;;4992522;28;20413;-46
2023/06/08 03:05:05;;;;;;;15.80;11.00;;;;;;;;;;4995309;28;20406;-46
2023/06/08 03:07:33;;;;;;;17.90;9.77;;;;;;;;;;4992509;28;20447;-45
2023/06/08 03:10:00;;;;;;;16.23;9.23;;;;;;;;;;4992331;28;21282;-45
2023/06/08 03:12:26;;;;;;;11.97;10.10;;;;;;;;;;4992463;28;20462;-45
2023/06/08 03:14:53;;;;;;;16.80;10.00;;;;;;;;;;4992309;28;20389;-44
2023/06/08 03:17:19;;;;;;;11.13;8.53;;;;;;;;;;4991350;28;20494;-45
2023/06/08 03:19:45;;;;;;;16.00;9.63;;;;;;;;;;4992032;28;20902;-46
2023/06/08 03:22:11;;;;;;;12.57;9.10;;;;;;;;;;4992589;28;20776;-46
2023/06/08 03:24:37;;;;;;;16.20;9.10;;;;;;;;;;4992326;28;20413;-46
2023/06/08 03:27:06;;;;;;;17.30;10.30;;;;;;;;;;4991990;28;20419;-45
2023/06/08 03:29:32;;;;;;;16.20;9.83;;;;;;;;;;4992123;28;20842;-45
2023/06/08 03:31:58;;;;;;;20.60;10.83;;;;;;;;;;4992165;28;20384;-46
2023/06/08 03:34:25;;;;;;;16.37;9.87;;;;;;;;;;4992140;28;20429;-45
2023/06/08 03:36:51;;;;;;;19.10;10.20;;;;;;;;;;4991992;28;20936;-45
2023/06/08 03:39:17;;;;;;;15.03;9.67;;;;;;;;;;4991898;28;20448;-45
2023/06/08 03:41:44;;;;;;;21.57;9.93;;;;;;;;;;4992520;28;20408;-45
2023/06/08 03:44:10;;;;;;;15.03;10.80;;;;;;;;;;4991094;28;20428;-45
2023/06/08 03:46:36;;;;;;;17.10;9.90;;;;;;;;;;4991240;28;20422;-45
2023/06/08 03:49:02;;;;;;;16.37;11.23;;;;;;;;;;4991910;28;20429;-46
2023/06/08 03:51:28;;;;;;;17.97;10.13;;;;;;;;;;4994754;28;20503;-45
2023/06/08 03:53:54;;;;;;;17.07;9.70;;;;;;;;;;4996035;28;20918;-44
2023/06/08 03:56:20;;;;;;;19.27;11.20;;;;;;;;;;4995545;28;20416;-45
2023/06/08 03:58:46;;;;;;;17.53;9.90;;;;;;;;;;4995820;28;20466;-45
2023/06/08 04:01:13;;;;;;;15.93;10.50;;;;;;;;;;4995674;28;20381;-45
2023/06/08 04:03:39;;;;;;;12.60;9.87;;;;;;;;;;4998746;28;21076;-45
2023/06/08 04:06:08;;;;;;;14.50;10.23;;;;;;;;;;4991841;28;20437;-45
2023/06/08 04:08:34;;;;;;;14.67;9.70;;;;;;;;;;4995838;28;20400;-45
2023/06/08 04:11:00;;;;;;;15.40;10.67;;;;;;;;;;4994047;28;20789;-45
2023/06/08 04:13:26;;;;;;;12.43;9.47;;;;;;;;;;4995697;28;20397;-46
2023/06/08 04:15:52;;;;;;;12.33;8.27;;;;;;;;;;4995373;28;20441;-45
2023/06/08 04:18:18;;;;;;;16.23;9.63;;;;;;;;;;4995433;28;20550;-45
2023/06/08 04:20:45;;;;;;;16.23;9.80;;;;;;;;;;4995294;28;20417;-46
2023/06/08 04:23:11;;;;;;;15.20;9.97;;;;;;;;;;4995510;28;20414;-46
2023/06/08 04:25:37;;;;;;;16.87;10.43;;;;;;;;;;4995301;28;20975;-46
2023/06/08 04:28:03;;;;;;;12.20;8.80;;;;;;;;;;4995270;28;20428;-44
2023/06/08 04:30:29;;;;;;;18.23;9.50;;;;;;;;;;4995129;28;20801;-46
2023/06/08 04:32:56;;;;;;;12.57;8.83;;;;;;;;;;4995215;28;20390;-45
2023/06/08 04:35:22;;;;;;;19.17;10.90;;;;;;;;;;4994541;28;20458;-45
2023/06/08 04:37:48;;;;;;;18.10;9.70;;;;;;;;;;4993509;28;20475;-47
2023/06/08 04:40:16;;;;;;;15.27;9.63;;;;;;;;;;4994916;28;20388;-47
2023/06/08 04:42:44;;;;;;;13.83;9.63;;;;;;;;;;4995024;28;20399;-46
2023/06/08 04:45:11;;;;;;;16.47;8.93;;;;;;;;;;4995042;28;20783;-45
2023/06/08 04:47:37;;;;;;;12.67;9.10;;;;;;;;;;4994887;28;20523;-45
2023/06/08 04:50:05;;;;;;;12.30;8.70;;;;;;;;;;4994835;28;20482;-45
2023/06/08 04:52:37;;;;;;;12.03;9.50;;;;;;;;;;4990342;28;20398;-45
2023/06/08 04:55:03;;;;;;;18.13;9.83;;;;;;;;;;4994902;28;20406;-45
2023/06/08 04:57:29;;;;;;;13.00;9.33;;;;;;;;;;4995279;28;20549;-46
2023/06/08 04:59:55;;;;;;;17.10;9.90;;;;;;;;;;4994576;28;20392;-47
2023/06/08 05:02:21;;;;;;;16.07;10.03;;;;;;;;;;4993290;28;20766;-46
2023/06/08 05:04:48;;;;;;;12.20;9.50;;;;;;;;;;4997414;28;20410;-48
2023/06/08 05:07:14;;;;;;;16.47;9.87;;;;;;;;;;4994337;28;20433;-47
2023/06/08 05:09:40;;;;;;;13.90;10.37;;;;;;;;;;4994405;28;20391;-46
2023/06/08 05:12:06;;;;;;;17.30;9.80;;;;;;;;;;4994711;28;20803;-47
2023/06/08 05:14:32;;;;;;;14.40;9.80;;;;;;;;;;4994445;28;20427;-48
2023/06/08 05:16:58;;;;;;;20.73;9.90;;;;;;;;;;4994272;28;20401;-47
2023/06/08 05:19:24;;;;;;;14.93;10.73;;;;;;;;;;4994660;28;20436;-48
2023/06/08 05:21:50;;;;;;;14.90;9.60;;;;;;;;;;4994351;28;20888;-46
2023/06/08 05:24:18;;;;;;;16.43;10.07;;;;;;;;;;4994571;28;20404;-47
2023/06/08 05:26:44;;;;;;;17.33;10.10;;;;;;;;;;4994144;28;20466;-47
2023/06/08 05:29:10;;;;;;;19.20;10.10;;;;;;;;;;4991590;28;20438;-46
2023/06/08 05:31:39;;;;;;;14.60;10.47;;;;;;;;;;4993022;28;20901;-47
2023/06/08 05:34:05;;;;;;;15.07;9.60;;;;;;;;;;4993458;28;20416;-47
2023/06/08 05:36:31;;;;;;;12.63;9.57;;;;;;;;;;4993633;28;20424;-47
2023/06/08 05:38:57;;;;;;;15.37;10.67;;;;;;;;;;4993424;28;20527;-46
2023/06/08 05:41:23;;;;;;;15.33;9.63;;;;;;;;;;4993472;28;20384;-46
2023/06/08 05:43:49;;;;;;;13.83;10.70;;;;;;;;;;4993245;28;20439;-47
2023/06/08 05:46:15;;;;;;;20.27;10.47;;;;;;;;;;4993563;28;20410;-48
2023/06/08 05:48:41;;;;;;;12.03;8.97;;;;;;;;;;4993834;28;20465;-47
2023/06/08 05:51:08;;;;;;;23.87;10.40;;;;;;;;;;4997511;28;20876;-47
2023/06/08 05:53:33;;;;;;;12.23;9.87;;;;;;;;;;4993990;28;20938;-47
2023/06/08 05:56:00;;;;;;;15.47;10.80;;;;;;;;;;4992563;28;20522;-48
2023/06/08 05:58:26;;;;;;;20.30;10.87;;;;;;;;;;4992653;28;20505;-47
2023/06/08 06:00:52;;;;;;;16.77;10.37;;;;;;;;;;4993436;28;20420;-47
2023/06/08 06:03:19;;;;;;;17.93;10.20;;;;;;;;;;4991692;28;20409;-47
2023/06/08 06:05:45;;;;;;;14.77;10.37;;;;;;;;;;4993250;28;20422;-47
2023/06/08 06:08:11;;;;;;;15.33;10.10;;;;;;;;;;4993240;28;20856;-47
2023/06/08 06:10:37;;;;;;;14.47;10.33;;;;;;;;;;4991567;28;20863;-46
2023/06/08 06:13:03;;;;;;;12.20;9.13;;;;;;;;;;4991418;28;20408;-49
2023/06/08 06:15:29;;;;;;;22.87;11.30;;;;;;;;;;4991232;28;20782;-47
2023/06/08 06:17:55;;;;;;;13.40;9.80;;;;;;;;;;4991394;28;20461;-48
2023/06/08 06:20:22;;;;;;;15.93;10.60;;;;;;;;;;4991471;28;20422;-46
2023/06/08 06:22:48;;;;;;;14.30;9.70;;;;;;;;;;4991909;28;20453;-48
2023/06/08 06:25:15;;;;;;;16.30;10.30;;;;;;;;;;4993366;28;20428;-48
2023/06/08 06:27:41;;;;;;;14.03;9.10;;;;;;;;;;4992916;28;20799;-48
2023/06/08 06:30:07;;;;;;;14.70;9.73;;;;;;;;;;4993013;28;20860;-48
2023/06/08 06:32:33;;;;;;;15.20;9.87;;;;;;;;;;4993036;28;20412;-47
2023/06/08 06:34:59;;;;;;;15.50;9.43;;;;;;;;;;4993036;28;20421;-49
2023/06/08 06:37:27;;;;;;;14.90;9.63;;;;;;;;;;4992715;28;20972;-46
2023/06/08 06:39:53;;;;;;;15.33;10.17;;;;;;;;;;4992752;28;20814;-49
2023/06/08 06:42:20;;;;;;;15.10;9.13;;;;;;;;;;4993271;28;20448;-47
2023/06/08 06:44:46;;;;;;;13.90;8.73;;;;;;;;;;4992905;28;20444;-48
2023/06/08 06:47:12;;;;;;;12.90;9.53;;;;;;;;;;4992479;28;20444;-47
2023/06/08 06:49:38;;;;;;;12.43;9.10;;;;;;;;;;4991806;28;20441;-47
2023/06/08 06:52:04;;;;;;;12.37;9.90;;;;;;;;;;4992948;28;20440;-47
2023/06/08 06:54:32;;;;;;;13.53;9.00;;;;;;;;;;4992762;28;20422;-48
2023/06/08 06:56:58;;;;;;;10.47;9.37;;;;;;;;;;4992278;28;20548;-46
2023/06/08 06:59:24;;;;;;;11.20;9.00;;;;;;;;;;4992390;28;20470;-47
2023/06/08 07:01:50;;;;;;;16.17;9.53;;;;;;;;;;4992396;28;20410;-47
2023/06/08 07:04:16;;;;;;;13.83;10.30;;;;;;;;;;4992468;28;20801;-47
2023/06/08 07:06:42;;;;;;;13.53;9.30;;;;;;;;;;4992534;28;20445;-48
2023/06/08 07:09:10;;;;;;;13.70;10.00;;;;;;;;;;4992297;28;20503;-48
2023/06/08 07:11:36;;;;;;;14.53;9.87;;;;;;;;;;4992583;28;20508;-47
2023/06/08 07:14:02;;;;;;;10.40;9.00;;;;;;;;;;4992297;28;20499;-46
2023/06/08 07:16:28;;;;;;;13.33;8.70;;;;;;;;;;4992219;28;21013;-47
2023/06/08 07:18:54;;;;;;;13.00;9.17;;;;;;;;;;4991508;28;20860;-46
2023/06/08 07:21:21;;;;;;;10.13;8.50;;;;;;;;;;4992190;28;20414;-47
2023/06/08 07:23:48;;;;;;;18.90;10.10;;;;;;;;;;4992212;28;20426;-48
2023/06/08 07:26:15;;;;;;;22.77;11.07;;;;;;;;;;4991887;28;20440;-47
2023/06/08 07:28:41;;;;;;;13.57;9.57;;;;;;;;;;4987262;28;20474;-47
2023/06/08 07:31:07;;;;;;;11.53;9.90;;;;;;;;;;4991801;28;20539;-49
2023/06/08 07:33:33;;;;;;;12.23;9.27;;;;;;;;;;4992000;28;20448;-47
2023/06/08 07:35:59;;;;;;;18.83;9.90;;;;;;;;;;4992113;28;20485;-47
2023/06/08 07:38:25;;;;;;;14.27;9.60;;;;;;;;;;4991966;28;20455;-47
2023/06/08 07:40:51;;;;;;;13.03;9.87;;;;;;;;;;4991719;28;20511;-47
2023/06/08 07:43:17;;;;;;;14.43;9.93;;;;;;;;;;4992371;28;20498;-48
2023/06/08 07:45:44;;;;;;;13.80;9.07;;;;;;;;;;4991152;28;20504;-49
2023/06/08 07:48:10;;;;;;;14.07;9.20;;;;;;;;;;4991980;28;20772;-47
2023/06/08 07:50:36;;;;;;;11.63;10.37;;;;;;;;;;4995812;28;20411;-49
2023/06/08 07:53:02;;;;;;;10.63;8.73;;;;;;;;;;4992071;28;20843;-47
2023/06/08 07:55:28;;;;;;;16.40;10.33;;;;;;;;;;4991647;28;20978;-48
2023/06/08 07:57:55;;;;;;;17.17;10.03;;;;;;;;;;4991629;28;20517;-49
2023/06/08 08:00:21;;;;;;;15.73;10.40;;;;;;;;;;4991591;28;20415;-49
2023/06/08 08:02:48;;;;;;;12.83;8.93;;;;;;;;;;4991847;28;20416;-47
2023/06/08 08:05:14;;;;;;;13.10;9.93;;;;;;;;;;4991541;28;20411;-48
2023/06/08 08:07:40;;;;;;;18.00;10.30;;;;;;;;;;4991856;28;20432;-47
2023/06/08 08:10:06;;;;;;;11.97;10.13;;;;;;;;;;4990358;28;20430;-48
2023/06/08 08:12:32;;;;;;;14.07;8.70;;;;;;;;;;4986881;28;20432;-47
2023/06/08 08:14:58;;;;;;;15.70;9.80;;;;;;;;;;4991571;28;20418;-47
2023/06/08 08:17:24;;;;;;;17.50;9.70;;;;;;;;;;4991530;28;20531;-49
2023/06/08 08:19:50;;;;;;;14.37;9.13;;;;;;;;;;4991482;28;20888;-49
2023/06/08 08:22:16;;;;;;;13.63;8.20;;;;;;;;;;4991525;28;20440;-49
2023/06/08 08:24:42;;;;;;;11.37;9.53;;;;;;;;;;4991648;28;20910;-49
2023/06/08 08:27:08;;;;;;;16.07;9.30;;;;;;;;;;4991219;28;20472;-49
2023/06/08 08:29:34;;;;;;;11.37;8.60;;;;;;;;;;4991320;28;20416;-49
2023/06/08 08:32:00;;;;;;;10.80;8.30;;;;;;;;;;4991418;28;20471;-49
2023/06/08 08:34:26;;;;;;;14.30;8.40;;;;;;;;;;4990823;28;20830;-49
2023/06/08 08:36:52;;;;;;;11.90;7.60;;;;;;;;;;4990331;28;20545;-48
2023/06/08 08:39:18;;;;;;;10.37;8.90;;;;;;;;;;4994104;28;20475;-47
2023/06/08 08:41:46;;;;;;;11.10;8.43;;;;;;;;;;4994711;28;20470;-50
2023/06/08 08:44:16;;;;;;;9.60;8.03;;;;;;;;;;4995020;28;20411;-48
2023/06/08 08:46:42;;;;;;;13.83;8.43;;;;;;;;;;4994785;28;20946;-49
2023/06/08 08:49:15;;;;;;;9.90;7.50;;;;;;;;;;4994682;28;20506;-49
2023/06/08 08:51:43;;;;;;;10.10;8.57;;;;;;;;;;4999425;28;20867;-49
2023/06/08 08:54:12;;;;;;;15.97;9.37;;;;;;;;;;4994647;28;20424;-48
2023/06/08 08:56:38;;;;;;;11.27;8.10;;;;;;;;;;4994637;28;20554;-48
2023/06/08 08:59:05;;;;;;;11.70;7.37;;;;;;;;;;4986487;28;20470;-47
2023/06/08 09:01:32;;;;;;;8.03;6.80;;;;;;;;;;4994624;28;20420;-48
2023/06/08 09:04:02;;;;;;;15.63;8.07;;;;;;;;;;4993804;28;20920;-48
2023/06/08 09:06:28;;;;;;;12.97;8.93;;;;;;;;;;4994194;28;20502;-47
2023/06/08 09:08:54;;;;;;;9.43;7.10;;;;;;;;;;4993139;28;20411;-47
2023/06/08 09:11:21;;;;;;;9.57;8.30;;;;;;;;;;4994234;28;20420;-47
2023/06/08 09:13:47;;;;;;;11.53;7.67;;;;;;;;;;4994575;28;20411;-46
2023/06/08 09:16:15;;;;;;;14.57;8.33;;;;;;;;;;4994274;28;20435;-48
2023/06/08 09:18:42;;;;;;;11.50;7.67;;;;;;;;;;4994230;28;20464;-48
2023/06/08 09:21:27;;;;;;;14.63;8.47;;;;;;;;;;4994486;28;20428;-49
2023/06/08 09:24:06;;;;;;;9.23;7.17;;;;;;;;;;4994351;28;20408;-49
2023/06/08 09:26:33;;;;;;;8.47;7.40;;;;;;;;;;4994068;28;20818;-47
2023/06/08 09:29:01;;;;;;;11.63;8.07;;;;;;;;;;4994013;28;20535;-48
2023/06/08 09:31:30;;;;;;;9.40;6.53;;;;;;;;;;4992893;28;20503;-48
2023/06/08 09:34:06;;;;;;;7.60;6.83;;;;;;;;;;4993647;28;20427;-49
2023/06/08 09:36:36;;;;;;;9.73;7.80;;;;;;;;;;4993980;28;20521;-48
2023/06/08 09:39:03;;;;;;;10.87;7.70;;;;;;;;;;4993772;28;20472;-49
2023/06/08 09:41:30;;;;;;;12.63;7.83;;;;;;;;;;4993651;28;20484;-49
2023/06/08 09:43:56;;;;;;;10.03;6.70;;;;;;;;;;4993934;28;20850;-48
2023/06/08 09:46:45;;;;;;;9.77;6.70;;;;;;;;;;4993578;28;21010;-49
2023/06/08 09:49:13;;;;;;;9.40;7.40;;;;;;;;;;4986364;28;20416;-48
2023/06/08 09:51:39;;;;;;;14.97;9.40;;;;;;;;;;4993549;28;20863;-48
2023/06/08 09:54:10;;;;;;;12.07;7.70;;;;;;;;;;4993797;28;20470;-49
2023/06/08 09:56:40;;;;;;;11.10;8.10;;;;;;;;;;4992148;28;20959;-48
2023/06/08 09:59:12;;;;;;;8.47;7.43;;;;;;;;;;4990281;28;20478;-47
2023/06/08 10:01:38;;;;;;;7.00;6.30;;;;;;;;;;4993449;28;20959;-49
2023/06/08 10:04:10;;;;;;;12.40;7.20;;;;;;;;;;4993624;28;20475;-48
2023/06/08 10:06:37;;;;;;;10.37;7.97;;;;;;;;;;4993741;28;20434;-48
2023/06/08 10:09:04;;;;;;;7.73;6.60;;;;;;;;;;4993136;28;20431;-47
2023/06/08 10:11:30;;;;;;;8.90;8.00;;;;;;;;;;4993098;28;20507;-49
2023/06/08 10:13:57;;;;;;;8.00;7.20;;;;;;;;;;4993418;28;20416;-48
2023/06/08 10:16:23;;;;;;;9.57;8.03;;;;;;;;;;4993148;28;20762;-49
2023/06/08 10:18:50;;;;;;;12.00;8.10;;;;;;;;;;4993004;28;20468;-50
2023/06/08 10:21:16;;;;;;;10.73;7.83;;;;;;;;;;4992913;28;20420;-48
2023/06/08 10:23:42;;;;;;;9.63;8.00;;;;;;;;;;4991816;28;20434;-48
2023/06/08 10:26:08;;;;;;;7.20;5.87;;;;;;;;;;4992279;28;20859;-48
2023/06/08 10:28:34;;;;;;;9.20;7.33;;;;;;;;;;4993025;28;20532;-48
2023/06/08 10:31:20;;;;;;;8.20;6.97;;;;;;;;;;4992639;28;20877;-49
2023/06/08 10:33:46;;;;;;;12.57;8.20;;;;;;;;;;4992781;28;20417;-48
2023/06/08 10:36:12;;;;;;;10.63;7.83;;;;;;;;;;4992633;28;20424;-49
2023/06/08 10:38:55;;;;;;;7.50;6.80;;;;;;;;;;4992567;28;20517;-48
2023/06/08 10:41:37;;;;;;;9.30;8.17;;;;;;;;;;4991362;28;20412;-48
2023/06/08 10:44:04;;;;;;;8.53;6.50;;;;;;;;;;4992684;28;20412;-47
2023/06/08 10:46:40;;;;;;;6.80;6.10;;;;;;;;;;4992634;28;20431;-48
2023/06/08 10:49:06;;;;;;;11.73;7.27;;;;;;;;;;4984895;28;20489;-48
2023/06/08 10:51:41;;;;;;;10.17;7.47;;;;;;;;;;4991484;28;20432;-48
2023/06/08 10:54:09;;;;;;;11.90;8.10;;;;;;;;;;4983099;28;20423;-48
2023/06/08 10:56:46;;;;;;;10.27;7.60;;;;;;;;;;4993091;28;20947;-46
2023/06/08 10:59:12;;;;;;;7.03;6.33;;;;;;;;;;4984980;28;20979;-47
2023/06/08 11:01:38;;;;;;;9.13;7.53;;;;;;;;;;4991616;28;20766;-47
2023/06/08 11:04:06;;;;;;;10.93;6.63;;;;;;;;;;4982900;28;20966;-48
2023/06/08 11:06:33;;;;;;;7.27;6.30;;;;;;;;;;4992202;28;20440;-47
2023/06/08 11:08:59;;;;;;;8.67;6.63;;;;;;;;;;4991075;28;20540;-48
2023/06/08 11:11:26;;;;;;;6.87;6.17;;;;;;;;;;4992084;28;20455;-48
2023/06/08 11:13:54;;;;;;;7.10;6.40;;;;;;;;;;4991975;28;20420;-48
2023/06/08 11:16:20;;;;;;;8.23;6.80;;;;;;;;;;4990516;28;20963;-47
2023/06/08 11:18:46;;;;;;;7.00;6.40;;;;;;;;;;4992084;28;20471;-48
2023/06/08 11:21:12;;;;;;;6.90;6.30;;;;;;;;;;4992147;28;20404;-48
2023/06/08 11:23:39;;;;;;;7.80;6.50;;;;;;;;;;4992185;28;20805;-48
2023/06/08 11:26:05;;;;;;;9.27;7.03;;;;;;;;;;4992156;28;20435;-48
2023/06/08 11:28:31;;;;;;;10.93;6.70;;;;;;;;;;4991873;28;20857;-48
2023/06/08 11:30:59;;;;;;;6.20;5.60;;;;;;;;;;4991876;28;20767;-48
2023/06/08 11:33:25;;;;;;;9.60;7.50;;;;;;;;;;4992071;28;20416;-48
2023/06/08 11:35:52;;;;;;;10.43;6.80;;;;;;;;;;4991619;28;20428;-47
2023/06/08 11:38:18;;;;;;;6.07;5.57;;;;;;;;;;4992485;28;20506;-48
2023/06/08 11:40:44;;;;;;;6.67;6.03;;;;;;;;;;4994930;28;20439;-48
2023/06/08 11:43:11;;;;;;;7.80;7.00;;;;;;;;;;4991114;28;20424;-47
2023/06/08 11:45:39;;;;;;;7.40;5.93;;;;;;;;;;4991843;28;20501;-48
2023/06/08 11:48:05;;;;;;;6.90;4.90;;;;;;;;;;4986472;28;20419;-47
2023/06/08 11:50:31;;;;;;;7.13;6.53;;;;;;;;;;4991610;28;20495;-47
2023/06/08 11:52:57;;;;;;;7.60;6.60;;;;;;;;;;4991884;28;20577;-48
2023/06/08 11:55:25;;;;;;;6.17;5.77;;;;;;;;;;4991755;28;20584;-47
2023/06/08 11:57:53;;;;;;;7.23;6.53;;;;;;;;;;4991492;28;20959;-48
2023/06/08 12:00:22;;;;;;;6.40;5.80;;;;;;;;;;4991754;28;20906;-48
2023/06/08 12:02:49;;;;;;;6.23;5.67;;;;;;;;;;4989643;28;20741;-47
2023/06/08 12:05:16;;;;;;;6.43;5.93;;;;;;;;;;4991894;28;20513;-47
2023/06/08 12:08:01;;;;;;;6.77;6.17;;;;;;;;;;4991568;28;20436;-48
2023/06/08 12:10:37;;;;;;;8.63;6.10;;;;;;;;;;4991054;28;20427;-46
2023/06/08 12:13:06;;;;;;;6.07;5.47;;;;;;;;;;4993851;28;21025;-48
2023/06/08 12:15:46;;;;;;;8.97;6.50;;;;;;;;;;4995438;28;20422;-48
2023/06/08 12:18:13;;;;;;;10.13;6.30;;;;;;;;;;4988510;28;20994;-48
2023/06/08 12:20:39;;;;;;;8.00;6.00;;;;;;;;;;4995042;28;20942;-47
2023/06/08 12:23:05;;;;;;;7.53;5.87;;;;;;;;;;4987654;28;20428;-47
2023/06/08 12:25:31;;;;;;;6.73;5.70;;;;;;;;;;4995338;28;20412;-46
2023/06/08 12:27:58;;;;;;;7.07;6.37;;;;;;;;;;4994302;28;20420;-47
2023/06/08 12:30:24;;;;;;;6.10;5.50;;;;;;;;;;4994918;28;20501;-48
2023/06/08 12:32:51;;;;;;;6.50;5.90;;;;;;;;;;4994990;28;20949;-47
2023/06/08 12:35:17;;;;;;;6.10;5.53;;;;;;;;;;4994308;28;20560;-48
2023/06/08 12:37:43;;;;;;;6.37;5.83;;;;;;;;;;4993767;28;20518;-48
2023/06/08 12:40:10;;;;;;;9.33;5.83;;;;;;;;;;4994540;28;20912;-48
2023/06/08 12:42:36;;;;;;;6.43;5.90;;;;;;;;;;4995058;28;20415;-48
2023/06/08 12:45:02;;;;;;;5.77;5.37;;;;;;;;;;4995054;28;20478;-48
2023/06/08 12:47:28;;;;;;;6.07;5.40;;;;;;;;;;4994700;28;20428;-48
2023/06/08 12:49:54;;;;;;;8.00;5.40;;;;;;;;;;4994870;28;20423;-48
2023/06/08 12:52:20;;;;;;;9.73;6.00;;;;;;;;;;4999293;28;20773;-47
2023/06/08 12:54:47;;;;;;;5.57;5.13;;;;;;;;;;4994804;28;20755;-47
2023/06/08 12:57:13;;;;;;;5.67;5.17;;;;;;;;;;4994656;28;20456;-48
2023/06/08 12:59:39;;;;;;;5.73;5.23;;;;;;;;;;4994400;28;20467;-47
2023/06/08 13:02:06;;;;;;;6.23;5.73;;;;;;;;;;4994599;28;20415;-48
2023/06/08 13:04:32;;;;;;;6.47;5.77;;;;;;;;;;4993663;28;20427;-47
2023/06/08 13:06:58;;;;;;;5.43;4.97;;;;;;;;;;4993992;28;20479;-48
2023/06/08 13:09:24;;;;;;;7.57;5.17;;;;;;;;;;4994361;28;20693;-47
2023/06/08 13:11:50;;;;;;;7.20;5.87;;;;;;;;;;4994616;28;20429;-46
2023/06/08 13:14:16;;;;;;;10.97;5.60;;;;;;;;;;4994495;28;20928;-47
2023/06/08 13:16:44;;;;;;;6.10;5.60;;;;;;;;;;4994104;28;20435;-47
2023/06/08 13:19:10;;;;;;;6.00;5.50;;;;;;;;;;4994070;28;20615;-46
2023/06/08 13:21:36;;;;;;;5.63;5.23;;;;;;;;;;4994321;28;20504;-47
2023/06/08 13:24:02;;;;;;;7.03;5.40;;;;;;;;;;4993827;28;20165;-48
2023/06/08 13:26:28;;;;;;;7.60;6.13;;;;;;;;;;4994135;28;20442;-47
2023/06/08 13:28:54;;;;;;;6.50;5.90;;;;;;;;;;4993072;28;20937;-47
2023/06/08 13:31:20;;;;;;;7.60;5.70;;;;;;;;;;4993687;28;20447;-47
2023/06/08 13:33:46;;;;;;;7.30;6.17;;;;;;;;;;4993053;28;20439;-48
2023/06/08 13:36:12;;;;;;;6.00;5.50;;;;;;;;;;4993201;28;20208;-48
2023/06/08 13:38:38;;;;;;;6.43;5.70;;;;;;;;;;4993978;28;20963;-47
2023/06/08 13:41:04;;;;;;;5.57;5.07;;;;;;;;;;4985657;28;20411;-47
2023/06/08 13:43:30;;;;;;;5.20;4.80;;;;;;;;;;4993875;28;20778;-46
2023/06/08 13:45:58;;;;;;;5.70;5.27;;;;;;;;;;4993530;28;20582;-48
2023/06/08 13:48:26;;;;;;;5.77;5.30;;;;;;;;;;4993771;28;20197;-47
2023/06/08 13:50:52;;;;;;;5.93;5.40;;;;;;;;;;4993263;28;20408;-48
2023/06/08 13:53:18;;;;;;;5.30;4.90;;;;;;;;;;4993704;28;20428;-48
2023/06/08 13:55:44;;;;;;;5.53;5.03;;;;;;;;;;4993647;28;20934;-48
2023/06/08 13:58:10;;;;;;;6.33;5.37;;;;;;;;;;4993819;28;21078;-48
2023/06/08 14:00:36;;;;;;;5.20;4.80;;;;;;;;;;4993212;28;20554;-48
2023/06/08 14:03:02;;;;;;;8.03;5.40;;;;;;;;;;4993363;28;20408;-48
2023/06/08 14:05:28;;;;;;;6.83;5.23;;;;;;;;;;4992466;28;20514;-47
2023/06/08 14:07:55;;;;;;;5.60;5.20;;;;;;;;;;4993434;28;20825;-48
2023/06/08 14:10:21;;;;;;;6.17;5.67;;;;;;;;;;4993192;28;20916;-47
2023/06/08 14:12:48;;;;;;;7.10;4.63;;;;;;;;;;4993820;28;20426;-46
2023/06/08 14:15:15;;;;;;;5.67;5.17;;;;;;;;;;4993114;28;20419;-47
2023/06/08 14:17:41;;;;;;;5.50;4.90;;;;;;;;;;4993266;28;20842;-47
2023/06/08 14:20:07;;;;;;;6.00;4.87;;;;;;;;;;4993082;28;20416;-48
2023/06/08 14:22:33;;;;;;;5.00;4.67;;;;;;;;;;4993365;28;20444;-47
2023/06/08 14:24:59;;;;;;;5.50;5.00;;;;;;;;;;4993404;28;20459;-47
2023/06/08 14:27:25;;;;;;;4.90;4.60;;;;;;;;;;4992951;28;20199;-47
2023/06/08 14:29:52;;;;;;;5.60;5.20;;;;;;;;;;4992684;28;20211;-48